Richmond Hill, Georgia
Current Conditions -  °F | °C
As of 11:58 AM on Saturday 20 Dec 2014 (Local Time) from KSVN Reporting Station
Broken Clouds Broken Clouds  
Wind Chill: 54°   Ceiling: 700
Heat Index: 54°   Visibility: 10mi
Dew Point: 52°   Wind: 7mph
Humidity: 95%   Direction: NA
Pressure: 30.17"   Gusts: NA
Location:  31.94°N, 81.3°W
Report Text: KSVN 201658Z AUTO VRB06KT 10SM BKN007 12/11 A3017 RMK AO2 DZB1613E1622 SLP220 P0000 T01200113
Loading
Personal Weather Stations






























Interactive Weather Map New forecast layout! Learn more

10-Day Weather Forecast

Advertisements
Track Severe Weather on mobile